Login
Access
Login with your mtb-forum.it nickname and password.


You do not have an account? Sign up here for free

vissiv

Last training unit 02/05/2015
0
Followers
19 067 Km
itineraries
192 327 m
of total vertical gain
695
hours of riding
28.22 Km/h
average speed
144
average HR


02/05/2015 Show to everybody 256 99.49 Km 1193 m 03:56:40 25.22 Km\h canyon ultimate cf slx
29/04/2015 Show to everybody 255 69.97 Km 384 m 02:10:20 32.21 Km\h canyon ultimate cf slx
25/04/2015 Show to everybody 254 30.09 Km 161 m 00:56:23 32.01 Km\h canyon ultimate cf slx
22/04/2015 Show to everybody 253 53.08 Km 610 m 01:52:32 28.3 Km\h canyon ultimate cf slx
15/04/2015 Show to everybody 252 34.45 Km 522 m 01:20:54 25.55 Km\h canyon ultimate cf slx
13/04/2015 Show to everybody 251 48.12 Km 272 m 01:29:17 32.34 Km\h canyon ultimate cf slx
08/04/2015 Show to everybody 250 48.17 Km 294 m 01:35:01 30.42 Km\h canyon ultimate cf slx
03/04/2015 Show to everybody 249 48.15 Km 290 m 01:34:45 30.49 Km\h canyon ultimate cf slx
02/04/2015 Show to everybody 248 53.39 Km 431 m 01:52:00 28.6 Km\h canyon ultimate cf slx
23/03/2015 Show to everybody 247 62.25 Km 398 m 02:14:42 27.73 Km\h canyon ultimate cf slx
20/03/2015 Show to everybody 246 37.09 Km 219 m 01:17:56 28.55 Km\h canyon ultimate cf slx
18/03/2015 Show to everybody 245 30.63 Km 161 m 01:04:02 28.7 Km\h canyon ultimate cf slx
22/01/2015 Show to everybody 244 88.08 Km 824 m 03:29:48 25.19 Km\h canyon ultimate cf slx
17/12/2014 Show to everybody 241 100.12 Km 425 m 03:20:22 29.98 Km\h canyon ultimate cf slx
13/12/2014 Show to everybody 240 105.06 Km 1087 m 03:53:29 27 Km\h canyon ultimate cf slx
10/12/2014 Show to everybody 239 100.29 Km 564 m 03:31:02 28.51 Km\h canyon ultimate cf slx
08/12/2014 Show to everybody 238 100.51 Km 436 m 03:29:16 28.82 Km\h canyon ultimate cf slx
23/11/2014 Show to everybody 237 100.12 Km 565 m 03:34:23 28.02 Km\h canyon ultimate cf slx
22/11/2014 Show to everybody 236 114.55 Km 1157 m 04:19:23 26.5 Km\h canyon ultimate cf slx
20/11/2014 Show to everybody 235 100.65 Km 1093 m 03:56:06 25.58 Km\h canyon ultimate cf slx
18/11/2014 Show to everybody 234 101.26 Km 418 m 03:32:47 28.55 Km\h canyon ultimate cf slx
12/11/2014 Show to everybody 233 100.24 Km 414 m 03:21:59 29.78 Km\h canyon ultimate cf slx
08/11/2014 Show to everybody 232 80.92 Km 1299 m 03:34:05 22.68 Km\h canyon ultimate cf slx
02/11/2014 Show to everybody 231 82.23 Km 667 m 02:51:45 28.73 Km\h canyon ultimate cf slx
31/10/2014 Show to everybody 230 101 Km 1091 m 03:49:43 26.38 Km\h canyon ultimate cf slx
29/10/2014 Show to everybody 229 101.96 Km 646 m 03:38:16 28.03 Km\h canyon ultimate cf slx
28/10/2014 Show to everybody 228 74.58 Km 819 m 02:44:17 27.24 Km\h canyon ultimate cf slx
27/10/2014 Show to everybody 227 64.49 Km 309 m 02:07:52 30.26 Km\h canyon ultimate cf slx
25/10/2014 Show to everybody 226 111.83 Km 1107 m 04:07:59 27.06 Km\h canyon ultimate cf slx
24/10/2014 Show to everybody 225 99.44 Km 585 m 03:20:55 29.69 Km\h canyon ultimate cf slx
22/10/2014 Show to everybody 224 34.63 Km 500 m 01:19:55 26 Km\h canyon ultimate cf slx
21/10/2014 Show to everybody 223 80.33 Km 369 m 02:37:14 30.65 Km\h canyon ultimate cf slx
20/10/2014 Show to everybody 222 29.74 Km 121 m 00:52:01 34.3 Km\h canyon ultimate cf slx
18/10/2014 Show to everybody 221 82.85 Km 703 m 03:04:35 26.93 Km\h canyon ultimate cf slx
16/10/2014 Show to everybody 220 45.46 Km 303 m 01:28:52 30.69 Km\h canyon ultimate cf slx
11/10/2014 Show to everybody 219 30.2 Km 116 m 00:58:41 30.88 Km\h canyon ultimate cf slx
04/10/2014 Show to everybody 218 105.4 Km 550 m 03:51:56 27.27 Km\h canyon ultimate cf slx
06/09/2014 Show to everybody 217 101.05 Km 1229 m 04:09:44 24.28 Km\h canyon ultimate cf slx
04/09/2014 Show to everybody 216 30.03 Km 122 m 00:52:16 34.47 Km\h canyon ultimate cf slx
29/08/2014 Show to everybody 215 64.31 Km 281 m 02:02:45 31.43 Km\h canyon ultimate cf slx
28/08/2014 Show to everybody 214 53.27 Km 213 m 01:39:57 31.98 Km\h canyon ultimate cf slx
23/07/2014 Show to everybody 212 48.3 Km 195 m 01:28:09 32.88 Km\h canyon ultimate cf slx
22/07/2014 Show to everybody 211 58.09 Km 527 m 01:55:04 30.29 Km\h canyon ultimate cf slx
19/07/2014 Show to everybody 210 96.56 Km 1619 m 03:50:40 25.12 Km\h canyon ultimate cf slx
17/07/2014 Show to everybody 209 79.72 Km 645 m 02:49:45 28.18 Km\h canyon ultimate cf slx
16/07/2014 Show to everybody 208 63.57 Km 278 m 02:04:41 30.59 Km\h canyon ultimate cf slx
15/07/2014 Show to everybody 207 57 Km 833 m 02:17:25 24.89 Km\h canyon ultimate cf slx
12/07/2014 Show to everybody 206 106.45 Km 1160 m 03:41:51 28.79 Km\h canyon ultimate cf slx
05/07/2014 Show to everybody 205 105.21 Km 1650 m 04:01:53 26.1 Km\h canyon ultimate cf slx
29/06/2014 Show to everybody 204 90.76 Km 1294 m 03:15:43 27.82 Km\h canyon ultimate cf slx
27/06/2014 Show to everybody 203 68.5 Km 607 m 02:16:18 30.15 Km\h canyon ultimate cf slx
24/06/2014 Show to everybody 202 63.6 Km 304 m 02:02:02 31.27 Km\h canyon ultimate cf slx
22/06/2014 Show to everybody 201 213.2 Km 3703 m 09:57:14 21.42 Km\h canyon ultimate cf slx
20/06/2014 Show to everybody 200 bis 94.47 Km 775 m 03:25:23 27.6 Km\h canyon ultimate cf slx
19/06/2014 Show to everybody 200 40.59 Km 1051 m 01:58:39 20.52 Km\h canyon ultimate cf slx
17/06/2014 Show to everybody 199 51.56 Km 656 m 01:56:36 26.53 Km\h canyon ultimate cf slx
14/06/2014 Show to everybody 198 81.61 Km 698 m 02:49:47 28.84 Km\h canyon ultimate cf slx
11/06/2014 Show to everybody 197 101.21 Km 1056 m 03:50:09 26.39 Km\h canyon ultimate cf slx
09/06/2014 Show to everybody 196 54.08 Km 347 m 01:45:58 30.62 Km\h canyon ultimate cf slx
08/06/2014 Show to everybody 195 108.76 Km 1003 m 03:42:47 29.29 Km\h canyon ultimate cf slx
06/06/2014 Show to everybody 194 74.27 Km 383 m 02:14:36 33.1 Km\h canyon ultimate cf slx
05/06/2014 Show to everybody 193 49.01 Km 973 m 02:04:38 23.59 Km\h canyon ultimate cf slx
04/06/2014 Show to everybody 192 67.64 Km 713 m 02:22:57 28.39 Km\h canyon ultimate cf slx
02/06/2014 Show to everybody 191 58.16 Km 591 m 01:58:38 29.42 Km\h canyon ultimate cf slx
30/05/2014 Show to everybody 190 64.4 Km 349 m 01:57:40 32.84 Km\h canyon ultimate cf slx
29/05/2014 Show to everybody 189 69.29 Km 1475 m 02:59:27 23.17 Km\h canyon ultimate cf slx
25/05/2014 Show to everybody 188 100.66 Km 669 m 03:31:25 28.57 Km\h canyon ultimate cf slx
24/05/2014 Show to everybody 187 151.65 Km 2153 m 06:04:16 24.98 Km\h canyon ultimate cf slx
22/05/2014 Show to everybody 186 68.32 Km 623 m 02:17:29 29.81 Km\h canyon ultimate cf slx
21/05/2014 Show to everybody 185 66.23 Km 318 m 02:03:29 32.18 Km\h canyon ultimate cf slx
17/05/2014 Show to everybody 182 107.11 Km 1201 m 03:55:56 27.24 Km\h canyon ultimate cf slx
16/05/2014 Show to everybody 181 bis 69.32 Km 840 m 02:25:31 28.58 Km\h canyon ultimate cf slx
14/05/2014 Show to everybody 181 65.18 Km 332 m 02:05:57 31.05 Km\h canyon ultimate cf slx
13/05/2014 Show to everybody 180 68.38 Km 680 m 02:15:21 30.31 Km\h canyon ultimate cf slx
12/05/2014 Show to everybody 179 35.71 Km 536 m 01:14:33 28.74 Km\h canyon ultimate cf slx
08/05/2014 Show to everybody 178 66.94 Km 1565 m 03:02:21 22.03 Km\h canyon ultimate cf slx
06/05/2014 Show to everybody 177 64.1 Km 347 m 02:01:37 31.62 Km\h canyon ultimate cf slx
05/05/2014 Show to everybody 176 42.39 Km 477 m 01:41:48 24.98 Km\h canyon ultimate cf slx
14/04/2014 Show to everybody 175 bis 79.43 Km 446 m 02:42:36 29.31 Km\h canyon ultimate cf slx
13/04/2014 Show to everybody 175 77.32 Km 936 m 02:44:34 28.19 Km\h canyon ultimate cf slx
11/04/2014 Show to everybody 174 89.27 Km 627 m 03:01:13 29.56 Km\h canyon ultimate cf slx
10/04/2014 Show to everybody 173 53.53 Km 263 m 01:43:36 31 Km\h canyon ultimate cf slx
09/04/2014 Show to everybody 172 94.35 Km 1123 m 03:24:54 27.63 Km\h canyon ultimate cf slx
08/04/2014 Show to everybody 171 54.14 Km 1470 m 02:44:06 19.79 Km\h canyon ultimate cf slx
07/04/2014 Show to everybody 170 65.11 Km 351 m 02:12:37 29.46 Km\h canyon ultimate cf slx
06/04/2014 Show to everybody 169 141.07 Km 2016 m 05:26:34 25.92 Km\h canyon ultimate cf slx
03/04/2014 Show to everybody 168 100.29 Km 644 m 03:17:56 30.4 Km\h canyon ultimate cf slx
02/04/2014 Show to everybody 167 80.44 Km 452 m 02:32:08 31.72 Km\h canyon ultimate cf slx
01/04/2014 Show to everybody 166 54.74 Km 1095 m 02:28:05 22.18 Km\h canyon ultimate cf slx
29/03/2014 Show to everybody 165 63.59 Km 354 m 02:01:41 31.35 Km\h canyon ultimate cf slx
20/03/2014 Show to everybody 164 con caduta 38.48 Km 406 m 01:21:47 28.23 Km\h canyon ultimate cf slx
19/03/2014 Show to everybody 163 80.13 Km 421 m 02:45:12 29.1 Km\h canyon ultimate cf slx
18/03/2014 Show to everybody 162 82.4 Km 2409 m 04:10:49 19.71 Km\h canyon ultimate cf slx
16/03/2014 Show to everybody 161 95.47 Km 876 m 03:23:00 28.22 Km\h canyon ultimate cf slx
14/03/2014 Show to everybody 160 73.41 Km 1155 m 02:51:00 25.76 Km\h canyon ultimate cf slx
13/03/2014 Show to everybody 159 79.28 Km 428 m 02:29:57 31.72 Km\h canyon ultimate cf slx
12/03/2014 Show to everybody 158 55.81 Km 1020 m 02:22:24 23.52 Km\h canyon ultimate cf slx
09/03/2014 Show to everybody 157 81.05 Km 1187 m 03:04:08 26.41 Km\h canyon ultimate cf slx
07/03/2014 Show to everybody 156 73.93 Km 2041 m 03:40:18 20.14 Km\h canyon ultimate cf slx
05/03/2014 Show to everybody 155 108.95 Km 1119 m 03:49:02 28.54 Km\h canyon ultimate cf slx
03/03/2014 Show to everybody 154 90.17 Km 1211 m 03:20:48 26.94 Km\h canyon ultimate cf slx
02/03/2014 Show to everybody 153 72.83 Km 791 m 02:32:55 28.58 Km\h canyon ultimate cf slx
25/02/2014 Show to everybody 152 101.63 Km 1134 m 03:44:11 27.2 Km\h canyon ultimate cf slx
24/02/2014 Show to everybody 151 77.71 Km 734 m 02:37:37 29.58 Km\h canyon ultimate cf slx
21/02/2014 Show to everybody 150 106.5 Km 780 m 03:41:14 28.88 Km\h canyon ultimate cf slx
19/02/2014 Show to everybody 149 100.44 Km 684 m 03:30:57 28.57 Km\h canyon ultimate cf slx
18/02/2014 Show to everybody 148 102.28 Km 696 m 03:27:06 29.63 Km\h canyon ultimate cf slx
15/02/2014 Show to everybody 147 200.28 Km 1565 m 06:53:04 29.09 Km\h canyon ultimate cf slx
12/02/2014 Show to everybody 146 101.14 Km 1129 m 03:40:25 27.53 Km\h canyon ultimate cf slx
11/02/2014 Show to everybody 145 103.56 Km 710 m 03:36:51 28.65 Km\h canyon ultimate cf slx
07/02/2014 Show to everybody 144 100.81 Km 874 m 03:37:10 27.85 Km\h canyon ultimate cf slx
06/02/2014 Show to everybody 143 100.73 Km 584 m 03:23:08 29.75 Km\h canyon ultimate cf slx
05/02/2014 Show to everybody 142 100.39 Km 698 m 03:26:26 29.18 Km\h canyon ultimate cf slx
04/02/2014 Show to everybody 141 106.53 Km 830 m 03:46:09 28.26 Km\h canyon ultimate cf slx
03/02/2014 Show to everybody 140 102.06 Km 694 m 03:27:38 29.49 Km\h canyon ultimate cf slx
02/02/2014 Show to everybody 139 20.71 Km 148 m 00:46:14 26.88 Km\h canyon ultimate cf slx
01/02/2014 Show to everybody 138 100.33 Km 695 m 03:20:03 30.09 Km\h canyon ultimate cf slx
29/01/2014 Show to everybody 137 103.13 Km 740 m 03:31:06 29.31 Km\h canyon ultimate cf slx
25/01/2014 Show to everybody 136 101.14 Km 836 m 03:52:27 26.11 Km\h canyon ultimate cf slx
23/01/2014 Show to everybody 135 72.03 Km 1048 m 02:54:39 24.75 Km\h canyon ultimate cf slx
22/01/2014 Show to everybody 134 83.89 Km 487 m 02:50:45 29.48 Km\h canyon ultimate cf slx
21/01/2014 Show to everybody 133 106.49 Km 830 m 03:42:57 28.66 Km\h canyon ultimate cf slx
20/01/2014 Show to everybody 132 74.37 Km 453 m 02:28:01 30.15 Km\h canyon ultimate cf slx
16/01/2014 Show to everybody 131 90.99 Km 1216 m 03:23:30 26.83 Km\h canyon ultimate cf slx
15/01/2014 Show to everybody 130 82.09 Km 430 m 02:43:23 30.15 Km\h canyon ultimate cf slx
10/01/2014 Show to everybody 129 80.73 Km 606 m 02:46:23 29.11 Km\h canyon ultimate cf slx
09/01/2014 Show to everybody 128 83.57 Km 687 m 02:52:46 29.02 Km\h canyon ultimate cf slx
08/01/2014 Show to everybody 127 80.26 Km 445 m 02:49:08 28.47 Km\h canyon ultimate cf slx
07/01/2014 Show to everybody 126 72.41 Km 648 m 02:39:25 27.25 Km\h canyon ultimate cf slx
06/01/2014 Show to everybody 125 74.23 Km 425 m 02:21:37 31.45 Km\h canyon ultimate cf slx
01/01/2014 Show to everybody 124 38.53 Km 478 m 01:31:05 25.38 Km\h canyon ultimate cf slx
22/12/2013 Show to everybody 123 60.89 Km 756 m 02:10:45 27.94 Km\h canyon ultimate cf slx
18/12/2013 Show to everybody 122 90.42 Km 760 m 03:03:24 29.58 Km\h canyon ultimate cf slx
16/12/2013 Show to everybody 121 80.45 Km 417 m 02:42:42 29.67 Km\h canyon ultimate cf slx
15/12/2013 Show to everybody 120 76.11 Km 1037 m 02:56:48 25.83 Km\h canyon ultimate cf slx
14/12/2013 Show to everybody 119 57.94 Km 455 m 01:50:03 31.59 Km\h canyon ultimate cf slx
08/12/2013 Show to everybody 118 77.11 Km 1205 m 03:00:24 25.65 Km\h canyon ultimate cf slx
03/12/2013 Show to everybody 117 70.56 Km 451 m 02:20:01 30.24 Km\h canyon ultimate cf slx
01/12/2013 Show to everybody 116 81.66 Km 1817 m 03:49:05 21.39 Km\h canyon ultimate cf slx
30/11/2013 Show to everybody 115 170.8 Km 1647 m 06:14:57 27.33 Km\h canyon ultimate cf slx
28/11/2013 Show to everybody 114 71.53 Km 665 m 02:39:36 26.89 Km\h canyon ultimate cf slx
27/11/2013 Show to everybody 113 72.41 Km 711 m 02:32:31 28.49 Km\h canyon ultimate cf slx
26/11/2013 Show to everybody 112 71.38 Km 443 m 02:33:18 27.94 Km\h canyon ultimate cf slx
25/11/2013 Show to everybody 111 70.81 Km 539 m 02:22:21 29.84 Km\h canyon ultimate cf slx
10/11/2013 Show to everybody 110 55.81 Km 127 m 02:00:04 27.89 Km\h canyon ultimate cf slx
09/11/2013 Show to everybody 109 127.12 Km 782 m 04:07:27 30.82 Km\h canyon ultimate cf slx
08/11/2013 Show to everybody 108 80.21 Km 593 m 02:34:49 31.08 Km\h canyon ultimate cf slx
07/11/2013 Show to everybody 107 68.41 Km 736 m 02:32:55 26.84 Km\h canyon ultimate cf slx
06/11/2013 Show to everybody 106 80.03 Km 485 m 02:33:41 31.25 Km\h canyon ultimate cf slx
01/11/2013 Show to everybody 105 86.14 Km 941 m 02:59:27 28.8 Km\h canyon ultimate cf slx
30/10/2013 Show to everybody 104 59.01 Km 1055 m 02:25:29 24.34 Km\h canyon ultimate cf slx
29/10/2013 Show to everybody 103 84.28 Km 400 m 02:35:10 32.59 Km\h canyon ultimate cf slx
27/10/2013 Show to everybody 102 86.66 Km 1132 m 03:05:43 28 Km\h canyon ultimate cf slx
25/10/2013 Show to everybody 101 70.22 Km 1230 m 02:50:19 24.74 Km\h canyon ultimate cf slx
23/10/2013 Show to everybody 100 59.73 Km 439 m 01:52:12 31.94 Km\h canyon ultimate cf slx
22/10/2013 Show to everybody 99 75.1 Km 368 m 02:17:40 32.73 Km\h canyon ultimate cf slx
20/10/2013 Show to everybody 98 74.89 Km 734 m 02:28:43 30.21 Km\h canyon ultimate cf slx
19/10/2013 Show to everybody 97 106.82 Km 761 m 02:55:34 36.51 Km\h canyon ultimate cf slx
18/10/2013 Show to everybody 96 54.49 Km 982 m 02:10:20 25.08 Km\h canyon ultimate cf slx
15/10/2013 Show to everybody 95 59.03 Km 284 m 01:44:11 34 Km\h canyon ultimate cf slx
13/10/2013 Show to everybody 94 56.45 Km 476 m 02:09:31 26.15 Km\h canyon ultimate cf slx
11/10/2013 Show to everybody 93 57.48 Km 836 m 02:09:18 26.67 Km\h canyon ultimate cf slx
09/10/2013 Show to everybody 92 52.43 Km 548 m 01:43:54 30.28 Km\h canyon ultimate cf slx
08/10/2013 Show to everybody 91 56.08 Km 766 m 01:59:00 28.27 Km\h canyon ultimate cf slx
04/10/2013 Show to everybody 90 65.45 Km 733 m 02:19:42 28.11 Km\h canyon ultimate cf slx
02/10/2013 Show to everybody 89 54.08 Km 368 m 01:51:31 29.1 Km\h canyon ultimate cf slx
01/10/2013 Show to everybody 88 40.67 Km 434 m 01:23:33 29.2 Km\h canyon ultimate cf slx
28/09/2013 Show to everybody 87 82.04 Km 414 m 02:36:49 31.39 Km\h canyon ultimate cf slx
27/09/2013 Show to everybody 86 72.11 Km 750 m 02:20:24 30.82 Km\h canyon ultimate cf slx
24/09/2013 Show to everybody 85 60.26 Km 657 m 02:07:41 28.32 Km\h canyon ultimate cf slx
22/09/2013 Show to everybody 84 78.94 Km 999 m 02:57:20 26.71 Km\h canyon ultimate cf slx
20/09/2013 Show to everybody 83 42.71 Km 203 m 01:15:54 33.76 Km\h canyon ultimate cf slx
18/09/2013 Show to everybody 82 39.88 Km 455 m 01:26:22 27.7 Km\h canyon ultimate cf slx
15/09/2013 Show to everybody 81 42.86 Km 191 m 01:16:09 33.77 Km\h canyon ultimate cf slx
13/09/2013 Show to everybody 80 64.41 Km 638 m 02:18:22 27.93 Km\h canyon ultimate cf slx
12/09/2013 Show to everybody 79 48.2 Km 561 m 01:43:18 28 Km\h canyon ultimate cf slx
11/09/2013 Show to everybody 78 58.98 Km 614 m 02:03:43 28.61 Km\h canyon ultimate cf slx
08/09/2013 Show to everybody 77 85.67 Km 994 m 02:58:18 28.83 Km\h canyon ultimate cf slx
06/09/2013 Show to everybody 76 68.56 Km 383 m 02:17:54 29.83 Km\h canyon ultimate cf slx
05/09/2013 Show to everybody 75 61.96 Km 813 m 02:15:09 27.51 Km\h canyon ultimate cf slx
03/09/2013 Show to everybody 74 52.38 Km 691 m 01:51:02 28.3 Km\h canyon ultimate cf slx
30/08/2013 Show to everybody 73 86.17 Km 896 m 02:56:24 29.31 Km\h canyon ultimate cf slx
30/08/2013 Show to everybody 72 86.17 Km 896 m 02:56:24 29.31 Km\h canyon ultimate cf slx
27/08/2013 Show to everybody 71 68.33 Km 658 m 02:15:41 30.22 Km\h canyon ultimate cf slx
26/08/2013 Show to everybody 70 34.67 Km 490 m 01:11:45 28.99 Km\h canyon ultimate cf slx
23/08/2013 Show to everybody 69 83.9 Km 696 m 02:54:07 28.91 Km\h canyon ultimate cf slx
21/08/2013 Show to everybody 68 63.37 Km 339 m 01:59:37 31.78 Km\h canyon ultimate cf slx
01/08/2013 Show to everybody 67 37.22 Km 533 m 01:37:07 23 Km\h canyon ultimate cf slx
30/07/2013 Show to everybody 66 58.86 Km 604 m 02:06:49 27.85 Km\h canyon ultimate cf slx
27/07/2013 Show to everybody 65 132.4 Km 1902 m 05:30:39 24.03 Km\h canyon ultimate cf slx
25/07/2013 Show to everybody 64 54.85 Km 857 m 02:10:26 25.23 Km\h canyon ultimate cf slx
23/07/2013 Show to everybody 63 63.19 Km 293 m 01:59:18 31.78 Km\h canyon ultimate cf slx
20/07/2013 Show to everybody 62 163.18 Km 3005 m 07:09:46 22.78 Km\h canyon ultimate cf slx
19/07/2013 Show to everybody 61 53.94 Km 357 m 01:45:47 30.6 Km\h canyon ultimate cf slx
16/07/2013 Show to everybody 60 58.47 Km 600 m 02:02:59 28.53 Km\h canyon ultimate cf slx
14/07/2013 Show to everybody 59 84 Km 1062 m 03:11:46 26.28 Km\h canyon ultimate cf slx
12/07/2013 Show to everybody 58 71.29 Km 1061 m 02:51:00 25.01 Km\h canyon ultimate cf slx
09/07/2013 Show to everybody 57 57.99 Km 436 m 01:50:07 31.6 Km\h canyon ultimate cf slx
07/07/2013 Show to everybody 56 140.67 Km 1928 m 05:25:13 25.95 Km\h canyon ultimate cf slx
05/07/2013 Show to everybody 55 41.88 Km 181 m 01:26:16 29.13 Km\h canyon ultimate cf slx
04/07/2013 Show to everybody 54 57.92 Km 429 m 01:49:19 31.79 Km\h canyon ultimate cf slx
02/07/2013 Show to everybody 53 58.62 Km 600 m 02:10:31 26.95 Km\h canyon ultimate cf slx
30/06/2013 Show to everybody 52 112.03 Km 1121 m 04:06:21 27.29 Km\h canyon ultimate cf slx
27/06/2013 Show to everybody 51 30.77 Km 145 m 00:58:26 31.6 Km\h canyon ultimate cf slx
26/06/2013 Show to everybody 50 58.68 Km 590 m 01:57:58 29.84 Km\h canyon ultimate cf slx
23/06/2013 Show to everybody 49 81.89 Km 2313 m 04:34:56 17.87 Km\h canyon ultimate cf slx
18/06/2013 Show to everybody 48 68.37 Km 602 m 02:32:36 26.88 Km\h canyon ultimate cf slx
11/06/2013 Show to everybody 47 52.38 Km 710 m 01:58:42 26.48 Km\h scapin eos 7
08/06/2013 Show to everybody 46 102.95 Km 1109 m 04:21:00 23.67 Km\h scapin eos 7
06/06/2013 Show to everybody 45 68.27 Km 633 m 02:15:45 30.17 Km\h scapin eos 7
04/06/2013 Show to everybody 44 45.41 Km 282 m 01:45:32 25.82 Km\h scapin eos 7
02/06/2013 Show to everybody 43 134.37 Km 1707 m 05:24:02 24.88 Km\h scapin eos 7
21/05/2013 Show to everybody 42 63.34 Km 344 m 01:56:08 32.73 Km\h scapin eos 7
08/05/2013 Show to everybody 41 63.32 Km 331 m 01:48:27 35.03 Km\h scapin eos 7
03/05/2013 Show to everybody 40 63.67 Km 338 m 01:54:34 33.35 Km\h scapin eos 7
30/04/2013 Show to everybody 39 37.43 Km 537 m 01:20:20 27.96 Km\h scapin eos 7
28/04/2013 Show to everybody 38 28.32 Km 114 m 00:53:52 31.55 Km\h scapin eos 7
26/04/2013 Show to everybody 37 63.36 Km 418 m 02:01:07 31.39 Km\h scapin eos 7
24/04/2013 Show to everybody 36 74.68 Km 938 m 02:44:07 27.3 Km\h scapin eos 7
23/04/2013 Show to everybody 35 66.44 Km 341 m 01:58:40 33.6 Km\h scapin eos 7
18/04/2013 Show to everybody 34 50.45 Km 912 m 02:03:27 24.52 Km\h scapin eos 7
16/04/2013 Show to everybody 33 54.85 Km 389 m 01:39:04 33.22 Km\h scapin eos 7
15/04/2013 Show to everybody 32 121.01 Km 2469 m 12:04:42 10.02 Km\h scapin eos 7
11/04/2013 Show to everybody 31 60.05 Km 827 m 02:15:08 26.66 Km\h scapin eos 7
10/04/2013 Show to everybody 30 63.64 Km 374 m 01:56:48 32.69 Km\h scapin eos 7
03/04/2013 Show to everybody 29 68.28 Km 649 m 02:17:14 29.85 Km\h scapin eos 7
01/04/2013 Show to everybody 28 46.26 Km 436 m 01:30:49 30.56 Km\h scapin eos 7
27/03/2013 Show to everybody 27 62.69 Km 342 m 01:56:03 32.41 Km\h scapin eos 7
23/03/2013 Show to everybody 26 111.63 Km 1921 m 04:55:05 22.7 Km\h scapin eos 7
21/03/2013 Show to everybody 25 59.62 Km 1035 m 02:22:46 25.06 Km\h scapin eos 7
19/03/2013 Show to everybody 24 59.16 Km 648 m 02:13:54 26.51 Km\h scapin eos 7
15/03/2013 Show to everybody 23 39.79 Km 633 m 01:34:20 25.31 Km\h scapin eos 7
12/03/2013 Show to everybody 22 63.31 Km 329 m 02:01:26 31.28 Km\h scapin eos 7
10/03/2013 Show to everybody 21 44.88 Km 349 m 01:30:58 29.61 Km\h scapin eos 7
02/03/2013 Show to everybody 20 142.94 Km 1993 m 05:36:56 25.45 Km\h scapin eos 7
28/02/2013 Show to everybody 19 46.92 Km 374 m 01:52:51 24.95 Km\h scapin eos 7
26/02/2013 Show to everybody 18 60.01 Km 466 m 02:00:26 29.89 Km\h scapin eos 7
16/02/2013 Show to everybody 17 160.36 Km 2031 m 06:23:03 25.12 Km\h scapin eos 7
15/02/2013 Show to everybody 16 45.55 Km 904 m 01:58:13 23.12 Km\h scapin eos 7
13/02/2013 Show to everybody 15 64.19 Km 385 m 02:05:20 30.73 Km\h scapin eos 7
10/02/2013 Show to everybody 14 65.34 Km 876 m 02:40:16 24.46 Km\h scapin eos 7
08/02/2013 Show to everybody 13 52.4 Km 769 m 02:02:31 25.66 Km\h scapin eos 7
06/02/2013 Show to everybody 12 64.8 Km 332 m 02:12:06 29.43 Km\h scapin eos 7
03/02/2013 Show to everybody 11 141.26 Km 1983 m 05:35:12 25.28 Km\h scapin eos 7
31/01/2013 Show to everybody 10 53.87 Km 1049 m 02:13:40 24.18 Km\h scapin eos 7
29/01/2013 Show to everybody 9 39.2 Km 168 m 01:13:53 31.84 Km\h scapin eos 7
27/01/2013 Show to everybody 8 115.31 Km 1312 m 04:12:55 27.36 Km\h scapin eos 7
25/01/2013 Show to everybody 7 47.03 Km 546 m 01:43:45 27.2 Km\h scapin eos 7
24/01/2013 Show to everybody 6 56.01 Km 298 m 01:47:14 31.34 Km\h scapin eos 7
17/01/2013 Show to everybody 5 49.5 Km 690 m 01:50:20 26.92 Km\h scapin eos 7
12/01/2013 Show to everybody 4 55.64 Km 550 m 02:10:08 25.65 Km\h scapin eos 7
06/01/2013 Show to everybody 3 70.38 Km 787 m 02:44:27 25.68 Km\h scapin eos 7
05/01/2013 Show to everybody 2 46.84 Km 592 m 01:55:45 24.28 Km\h scapin eos 7
03/01/2013 Show to everybody 1 64.05 Km 338 m 02:08:32 29.9 Km\h scapin eos 7
01/01/1970 Show to everybody 32 0 Km 0 m 0 Km\h scapin eos 7

Show previous years trainings
This user's bikes.
scapin eos 7 48 3211.19 Km 35558 m 125:11:33 27.72 Km/h
canyon ultimate cf slx 207 15855.97 Km 156769 m 570:16:14 28.34 Km/h

346 points
Kilometers
0
Vertical gain
0
Rank:48

Watch ranking »

 

Bike name

Delete this bike?

Now you follow this users and you can compare your trainings

If you stop following this users you will not be able to compare your trainings with his


bdc-forum.it | 2012-2020 Training Camp v.1.0.15